createdAt,value
2022-09-27T00:01:03.255Z,0.90
2022-09-27T00:03:32.179Z,0.80
2022-09-27T00:06:05.444Z,0.80
2022-09-27T00:08:34.021Z,1.03
2022-09-27T00:11:03.169Z,1.07
2022-09-27T00:13:31.820Z,0.77
2022-09-27T00:16:00.706Z,1.20
2022-09-27T00:18:31.162Z,1.27
2022-09-27T00:21:05.994Z,0.80
2022-09-27T00:23:34.536Z,1.30
2022-09-27T00:26:03.031Z,0.70
2022-09-27T00:28:31.919Z,1.00
2022-09-27T00:31:00.297Z,0.80
2022-09-27T00:33:30.237Z,0.70
2022-09-27T00:36:05.327Z,1.00
2022-09-27T00:38:33.746Z,1.00
2022-09-27T00:41:02.148Z,0.70
2022-09-27T00:43:44.332Z,0.87
2022-09-27T00:46:13.455Z,0.87
2022-09-27T00:48:43.235Z,0.83
2022-09-27T00:51:11.927Z,1.20
2022-09-27T00:53:46.304Z,0.60
2022-09-27T00:56:16.622Z,1.03
2022-09-27T00:58:46.646Z,1.20
2022-09-27T01:01:15.110Z,0.90
2022-09-27T01:03:47.853Z,0.97
2022-09-27T01:06:16.423Z,0.87
2022-09-27T01:08:44.714Z,1.10
2022-09-27T01:11:16.345Z,1.03
2022-09-27T01:13:49.054Z,0.77
2022-09-27T01:16:22.846Z,1.10
2022-09-27T01:18:57.268Z,0.80
2022-09-27T01:21:38.918Z,0.83
2022-09-27T01:24:14.750Z,1.00
2022-09-27T01:26:54.227Z,1.03
2022-09-27T01:29:28.452Z,0.90
2022-09-27T01:32:03.085Z,1.13
2022-09-27T01:34:36.868Z,1.10
2022-09-27T01:37:11.262Z,1.23
2022-09-27T01:39:46.262Z,0.80
2022-09-27T01:42:22.472Z,0.60
2022-09-27T01:44:54.129Z,1.20
2022-09-27T01:47:24.592Z,0.80
2022-09-27T01:49:55.870Z,0.70
2022-09-27T01:52:26.169Z,0.60
2022-09-27T01:54:56.506Z,0.77
2022-09-27T01:57:26.394Z,1.10
2022-09-27T01:59:56.447Z,0.80
2022-09-27T02:02:28.559Z,1.00
2022-09-27T02:04:58.660Z,1.00
2022-09-27T02:07:29.848Z,0.70
2022-09-27T02:09:59.858Z,0.90
2022-09-27T02:12:31.086Z,0.70
2022-09-27T02:15:01.063Z,0.80
2022-09-27T02:17:33.081Z,0.70
2022-09-27T02:20:07.380Z,0.83
2022-09-27T02:22:37.109Z,0.80
2022-09-27T02:25:12.619Z,0.70
2022-09-27T02:27:43.865Z,1.03
2022-09-27T02:30:13.977Z,0.83
2022-09-27T02:32:43.800Z,0.93
2022-09-27T02:35:14.900Z,1.00
2022-09-27T02:37:43.392Z,0.77
2022-09-27T02:40:11.868Z,0.77
2022-09-27T02:42:40.354Z,0.90
2022-09-27T02:45:09.264Z,1.13
2022-09-27T02:47:45.275Z,1.00
2022-09-27T02:50:26.197Z,0.80
2022-09-27T02:53:01.356Z,1.33
2022-09-27T02:55:32.519Z,0.90
2022-09-27T02:58:06.315Z,0.93
2022-09-27T03:00:38.413Z,1.10
2022-09-27T03:03:09.641Z,1.13
2022-09-27T03:05:42.050Z,0.80
2022-09-27T03:08:11.229Z,0.70
2022-09-27T03:10:39.482Z,1.43
2022-09-27T03:13:08.160Z,1.00
2022-09-27T03:15:36.447Z,0.70
2022-09-27T03:18:04.976Z,0.80
2022-09-27T03:20:33.348Z,0.70
2022-09-27T03:23:03.014Z,0.80
2022-09-27T03:25:31.300Z,0.60
2022-09-27T03:27:59.562Z,0.90
2022-09-27T03:30:27.790Z,1.00
2022-09-27T03:32:56.075Z,2.23
2022-09-27T03:35:24.345Z,0.93
2022-09-27T03:37:52.638Z,1.80
2022-09-27T03:40:22.303Z,1.20
2022-09-27T03:42:51.062Z,1.10
2022-09-27T03:45:19.332Z,1.13
2022-09-27T03:47:48.069Z,1.03
2022-09-27T03:50:16.510Z,1.03
2022-09-27T03:52:45.046Z,1.30
2022-09-27T03:55:13.711Z,1.40
2022-09-27T03:57:45.514Z,1.23
2022-09-27T04:00:14.639Z,1.00
2022-09-27T04:02:43.114Z,0.90
2022-09-27T04:05:11.461Z,1.20
2022-09-27T04:07:40.124Z,1.90
2022-09-27T04:10:08.755Z,1.90
2022-09-27T04:12:37.026Z,1.60
2022-09-27T04:15:07.837Z,1.70
2022-09-27T04:17:36.117Z,1.63
2022-09-27T04:20:04.457Z,2.03
2022-09-27T04:22:32.720Z,1.40
2022-09-27T04:25:01.012Z,1.50
2022-09-27T04:27:29.310Z,1.30
2022-09-27T04:29:57.591Z,2.53
2022-09-27T04:32:27.235Z,1.57
2022-09-27T04:35:13.018Z,1.20
2022-09-27T04:37:41.901Z,1.27
2022-09-27T04:40:10.563Z,1.33
2022-09-27T04:42:38.846Z,1.00
2022-09-27T04:45:07.678Z,1.87
2022-09-27T04:47:37.336Z,1.63
2022-09-27T04:50:06.026Z,1.90
2022-09-27T04:52:34.283Z,1.70
2022-09-27T04:55:02.562Z,1.10
2022-09-27T04:57:30.867Z,1.37
2022-09-27T05:00:00.319Z,1.67
2022-09-27T05:02:28.672Z,1.50
2022-09-27T05:04:59.291Z,1.50
2022-09-27T05:07:27.691Z,1.10
2022-09-27T05:09:56.628Z,0.73
2022-09-27T05:12:26.809Z,1.73
2022-09-27T05:14:55.215Z,0.93
2022-09-27T05:17:23.555Z,1.40
2022-09-27T05:19:52.197Z,1.00
2022-09-27T05:22:21.835Z,1.27
2022-09-27T05:24:50.112Z,1.00
2022-09-27T05:27:20.234Z,0.80
2022-09-27T05:29:48.758Z,1.87
2022-09-27T05:32:17.085Z,1.47
2022-09-27T05:34:45.347Z,1.30
2022-09-27T05:37:14.483Z,1.27
2022-09-27T05:39:44.172Z,1.77
2022-09-27T05:42:15.256Z,0.93
2022-09-27T05:44:47.008Z,0.83
2022-09-27T05:47:15.666Z,0.90
2022-09-27T05:49:43.951Z,1.67
2022-09-27T05:52:16.004Z,1.20
2022-09-27T05:54:47.158Z,0.90
2022-09-27T05:57:15.428Z,1.33
2022-09-27T05:59:43.704Z,1.27
2022-09-27T06:02:12.398Z,1.60
2022-09-27T06:04:40.765Z,1.10
2022-09-27T06:07:09.031Z,1.23
2022-09-27T06:09:37.306Z,0.90
2022-09-27T06:12:11.758Z,1.20
2022-09-27T06:14:40.425Z,0.93
2022-09-27T06:17:08.713Z,1.07
2022-09-27T06:19:37.011Z,1.67
2022-09-27T06:22:05.600Z,0.80
2022-09-27T06:24:33.893Z,1.30
2022-09-27T06:27:02.183Z,1.30
2022-09-27T06:29:35.150Z,1.57
2022-09-27T06:32:03.831Z,1.20
2022-09-27T06:34:32.640Z,1.17
2022-09-27T06:37:00.908Z,0.90
2022-09-27T06:39:29.524Z,1.40
2022-09-27T06:41:58.112Z,1.00
2022-09-27T06:44:26.531Z,1.60
2022-09-27T06:46:56.731Z,1.20
2022-09-27T06:49:25.504Z,0.93
2022-09-27T06:51:54.765Z,1.70
2022-09-27T06:54:23.036Z,1.63
2022-09-27T06:56:51.335Z,0.90
2022-09-27T06:59:37.213Z,1.20
2022-09-27T07:02:06.902Z,0.90
2022-09-27T07:04:35.240Z,1.57
2022-09-27T07:07:03.505Z,1.00
2022-09-27T07:09:31.848Z,0.90
2022-09-27T07:12:00.194Z,0.93
2022-09-27T07:14:28.499Z,0.80
2022-09-27T07:16:56.825Z,1.20
2022-09-27T07:19:26.691Z,0.80
2022-09-27T07:21:54.954Z,0.70
2022-09-27T07:24:23.220Z,0.87
2022-09-27T07:26:51.507Z,0.80
2022-09-27T07:29:19.778Z,0.80
2022-09-27T07:31:48.063Z,0.60
2022-09-27T07:34:18.955Z,0.60
2022-09-27T07:36:48.630Z,0.93
2022-09-27T07:39:17.185Z,0.67
2022-09-27T07:41:45.739Z,0.60
2022-09-27T07:44:16.607Z,1.10
2022-09-27T07:46:45.100Z,0.90
2022-09-27T07:49:13.418Z,0.90
2022-09-27T07:51:41.700Z,0.77
2022-09-27T07:54:11.383Z,0.70
2022-09-27T07:56:39.661Z,0.60
2022-09-27T07:59:08.352Z,0.60
2022-09-27T08:01:36.775Z,0.70
2022-09-27T08:04:05.594Z,0.50
2022-09-27T08:06:33.880Z,0.70
2022-09-27T08:09:03.185Z,0.80
2022-09-27T08:11:32.850Z,0.90
2022-09-27T08:14:01.525Z,0.80
2022-09-27T08:16:29.890Z,0.77
2022-09-27T08:18:58.415Z,0.80
2022-09-27T08:21:26.700Z,0.77
2022-09-27T08:23:55.019Z,0.73
2022-09-27T08:26:23.342Z,0.63
2022-09-27T08:28:52.999Z,0.60
2022-09-27T08:31:21.381Z,0.97
2022-09-27T08:33:51.169Z,0.80
2022-09-27T08:36:20.069Z,0.63
2022-09-27T08:38:50.650Z,0.70
2022-09-27T08:41:25.974Z,0.60
2022-09-27T08:44:00.452Z,0.70
2022-09-27T08:46:33.702Z,0.70
2022-09-27T08:49:06.954Z,0.97
2022-09-27T08:51:35.525Z,0.70
2022-09-27T08:54:07.790Z,0.60
2022-09-27T08:56:36.289Z,0.70
2022-09-27T08:59:14.558Z,0.60
2022-09-27T09:01:42.866Z,1.13
2022-09-27T09:04:12.859Z,1.23
2022-09-27T09:06:42.519Z,0.80
2022-09-27T09:09:17.810Z,0.60
2022-09-27T09:12:08.442Z,0.70
2022-09-27T09:14:45.022Z,0.80
2022-09-27T09:17:21.210Z,0.80
2022-09-27T09:19:54.052Z,0.60
2022-09-27T09:22:34.767Z,0.80
2022-09-27T09:25:08.691Z,1.10
2022-09-27T09:27:40.545Z,0.90
2022-09-27T09:30:24.134Z,0.80
2022-09-27T09:33:05.324Z,0.90
2022-09-27T09:35:37.430Z,1.27
2022-09-27T09:38:08.090Z,0.70
2022-09-27T09:40:39.061Z,1.00
2022-09-27T09:43:12.507Z,0.67
2022-09-27T09:45:43.544Z,0.60
2022-09-27T09:48:17.629Z,0.77
2022-09-27T09:50:46.954Z,0.80
2022-09-27T09:53:17.130Z,0.90
2022-09-27T09:55:48.946Z,1.27
2022-09-27T09:58:22.819Z,0.67
2022-09-27T10:00:53.357Z,0.90
2022-09-27T10:03:21.748Z,0.90
2022-09-27T10:05:50.033Z,1.70
2022-09-27T10:08:20.457Z,0.70
2022-09-27T10:10:49.190Z,1.53
2022-09-27T10:13:18.328Z,0.87
2022-09-27T10:15:55.418Z,1.10
2022-09-27T10:18:26.376Z,0.70
2022-09-27T10:20:57.491Z,1.30
2022-09-27T10:23:26.538Z,1.10
2022-09-27T10:25:55.842Z,1.07
2022-09-27T10:28:34.786Z,1.37
2022-09-27T10:31:04.191Z,1.23
2022-09-27T10:33:34.195Z,0.80
2022-09-27T10:36:03.215Z,1.40
2022-09-27T10:38:32.555Z,2.17
2022-09-27T10:41:17.536Z,1.67
2022-09-27T10:43:45.821Z,0.87
2022-09-27T10:46:20.545Z,1.20
2022-09-27T10:48:51.904Z,0.90
2022-09-27T10:51:24.386Z,0.93
2022-09-27T10:53:53.008Z,1.40
2022-09-27T10:56:25.766Z,0.97
2022-09-27T10:58:55.038Z,1.27
2022-09-27T11:01:23.482Z,1.00
2022-09-27T11:03:54.747Z,1.10
2022-09-27T11:06:30.130Z,1.37
2022-09-27T11:09:00.215Z,1.00
2022-09-27T11:11:29.828Z,0.80
2022-09-27T11:14:04.340Z,1.17
2022-09-27T11:16:41.825Z,0.70
2022-09-27T11:19:18.167Z,1.20
2022-09-27T11:21:52.189Z,0.90
2022-09-27T11:24:35.138Z,0.70
2022-09-27T11:27:09.101Z,1.07
2022-09-27T11:29:41.388Z,1.13
2022-09-27T11:32:15.753Z,0.73
2022-09-27T11:35:03.480Z,0.67
2022-09-27T11:37:34.571Z,0.90
2022-09-27T11:40:06.949Z,0.93
2022-09-27T11:42:43.954Z,0.80
2022-09-27T11:48:19.209Z,1.00
2022-09-27T11:50:58.524Z,0.60
2022-09-27T11:53:33.625Z,0.60
2022-09-27T11:56:05.189Z,0.80
2022-09-27T11:58:37.235Z,1.03
2022-09-27T12:01:11.309Z,1.03
2022-09-27T12:03:57.311Z,0.87
2022-09-27T12:06:33.393Z,1.37
2022-09-27T12:09:04.548Z,1.13
2022-09-27T12:11:36.150Z,0.80
2022-09-27T12:14:05.613Z,1.00
2022-09-27T12:16:34.703Z,1.13
2022-09-27T12:19:03.602Z,0.90
2022-09-27T12:21:34.432Z,0.80
2022-09-27T12:24:03.860Z,1.20
2022-09-27T12:26:35.913Z,1.00
2022-09-27T12:29:07.317Z,1.00
2022-09-27T12:31:38.392Z,1.00
2022-09-27T12:34:16.303Z,0.83
2022-09-27T12:36:50.893Z,1.20
2022-09-27T12:39:22.778Z,0.97
2022-09-27T12:41:53.468Z,0.87
2022-09-27T12:44:21.683Z,0.60
2022-09-27T12:46:57.341Z,1.20
2022-09-27T12:49:29.216Z,0.70
2022-09-27T12:52:01.043Z,1.00
2022-09-27T12:54:38.712Z,1.00
2022-09-27T12:57:15.851Z,0.67
2022-09-27T12:59:53.712Z,0.70
2022-09-27T13:02:57.456Z,1.10
2022-09-27T13:05:56.254Z,1.37
2022-09-27T13:08:32.338Z,0.87
2022-09-27T13:11:07.109Z,2.50
2022-09-27T13:13:36.879Z,0.80
2022-09-27T13:16:05.659Z,1.13
2022-09-27T13:18:51.266Z,0.73
2022-09-27T13:21:40.569Z,3.50
2022-09-27T13:24:30.860Z,0.73
2022-09-27T13:27:01.478Z,0.90
2022-09-27T13:29:31.075Z,0.80
2022-09-27T13:32:15.875Z,0.80
2022-09-27T13:34:45.056Z,1.00
2022-09-27T13:37:40.741Z,0.73
2022-09-27T13:40:28.338Z,1.07
2022-09-27T13:43:07.785Z,0.70
2022-09-27T13:45:37.754Z,1.00
2022-09-27T13:48:11.125Z,0.70
2022-09-27T13:50:41.055Z,0.60
2022-09-27T13:53:11.654Z,0.73
2022-09-27T13:55:42.151Z,0.70
2022-09-27T13:58:40.350Z,0.60
2022-09-27T14:01:13.938Z,0.87
2022-09-27T14:03:54.394Z,0.80
2022-09-27T14:06:24.275Z,0.80
2022-09-27T14:08:54.110Z,0.90
2022-09-27T14:11:24.474Z,0.70
2022-09-27T14:13:53.969Z,0.80
2022-09-27T14:16:23.807Z,0.83
2022-09-27T14:18:53.809Z,1.60
2022-09-27T14:21:27.348Z,0.80
2022-09-27T14:23:55.804Z,0.80
2022-09-27T14:26:25.079Z,0.90
2022-09-27T14:28:53.636Z,0.80
2022-09-27T14:31:24.706Z,0.60
2022-09-27T14:33:53.277Z,1.30
2022-09-27T14:36:45.497Z,0.53
2022-09-27T14:39:15.188Z,0.70
2022-09-27T14:41:44.675Z,0.80
2022-09-27T14:44:16.014Z,0.60
2022-09-27T14:46:46.212Z,0.70
2022-09-27T14:49:21.203Z,0.80
2022-09-27T14:51:53.153Z,0.57
2022-09-27T14:54:22.927Z,0.67
2022-09-27T14:56:53.603Z,0.50
2022-09-27T14:59:30.632Z,0.67
2022-09-27T15:02:01.723Z,0.60
2022-09-27T15:04:31.988Z,0.70
2022-09-27T15:07:02.183Z,0.60
2022-09-27T15:09:33.067Z,0.60
2022-09-27T15:12:02.495Z,0.50
2022-09-27T15:14:33.280Z,0.60
2022-09-27T15:17:05.998Z,0.50
2022-09-27T15:19:34.894Z,0.50
2022-09-27T15:22:17.999Z,0.53
2022-09-27T15:24:46.972Z,0.40
2022-09-27T15:27:16.247Z,0.47
2022-09-27T15:29:49.355Z,0.50
2022-09-27T15:32:20.384Z,0.70
2022-09-27T15:34:48.703Z,0.53
2022-09-27T15:37:27.331Z,0.80
2022-09-27T15:39:55.625Z,1.10
2022-09-27T15:42:23.882Z,0.60
2022-09-27T15:44:53.058Z,0.60
2022-09-27T15:47:42.022Z,0.70
2022-09-27T15:50:30.369Z,0.70
2022-09-27T15:52:58.855Z,0.77
2022-09-27T15:55:28.256Z,0.83
2022-09-27T15:57:59.257Z,0.70
2022-09-27T16:00:28.082Z,0.70
2022-09-27T16:02:57.727Z,0.83
2022-09-27T16:05:27.091Z,0.70
2022-09-27T16:07:55.541Z,0.60
2022-09-27T16:10:24.603Z,0.70
2022-09-27T16:12:52.853Z,0.77
2022-09-27T16:15:21.095Z,0.90
2022-09-27T16:17:49.367Z,1.10
2022-09-27T16:20:20.906Z,0.70
2022-09-27T16:22:49.186Z,1.03
2022-09-27T16:25:17.522Z,0.60
2022-09-27T16:27:45.754Z,0.70
2022-09-27T16:30:14.318Z,1.00
2022-09-27T16:32:42.804Z,0.80
2022-09-27T16:35:11.606Z,0.70
2022-09-27T16:37:41.451Z,0.90
2022-09-27T16:40:10.693Z,0.67
2022-09-27T16:42:39.724Z,0.87
2022-09-27T16:45:11.854Z,1.20
2022-09-27T16:47:41.854Z,0.70
2022-09-27T16:50:29.825Z,0.77
2022-09-27T16:53:00.204Z,0.90
2022-09-27T16:55:28.967Z,0.70
2022-09-27T16:57:59.616Z,0.80
2022-09-27T17:00:28.412Z,0.60
2022-09-27T17:02:56.729Z,0.70
2022-09-27T17:05:25.205Z,0.87
2022-09-27T17:07:53.948Z,0.70
2022-09-27T17:10:24.032Z,0.80
2022-09-27T17:12:52.545Z,0.70
2022-09-27T17:15:21.667Z,0.93
2022-09-27T17:17:50.617Z,1.10
2022-09-27T17:20:18.927Z,0.83
2022-09-27T17:22:47.174Z,1.07
2022-09-27T17:25:15.455Z,0.87
2022-09-27T17:27:45.182Z,0.70
2022-09-27T17:30:13.847Z,0.90
2022-09-27T17:32:42.135Z,0.70
2022-09-27T17:35:10.619Z,0.80
2022-09-27T17:37:38.845Z,1.20
2022-09-27T17:40:07.587Z,2.27
2022-09-27T17:42:37.274Z,1.00
2022-09-27T17:45:07.339Z,0.97
2022-09-27T17:47:53.416Z,0.80
2022-09-27T17:50:28.745Z,1.00
2022-09-27T17:52:58.464Z,0.90
2022-09-27T17:55:27.459Z,0.80
2022-09-27T17:57:55.673Z,1.47
2022-09-27T18:00:25.223Z,1.00
2022-09-27T18:02:53.774Z,0.83
2022-09-27T18:05:22.393Z,1.10
2022-09-27T18:07:50.648Z,1.30
2022-09-27T18:10:18.894Z,0.87
2022-09-27T18:12:47.414Z,1.10
2022-09-27T18:15:20.292Z,1.27
2022-09-27T18:17:57.803Z,1.03
2022-09-27T18:20:26.569Z,1.13
2022-09-27T18:22:55.018Z,1.10
2022-09-27T18:25:25.011Z,0.80
2022-09-27T18:27:55.533Z,0.90
2022-09-27T18:30:26.052Z,1.17
2022-09-27T18:32:55.838Z,1.17
2022-09-27T18:35:24.814Z,1.67
2022-09-27T18:37:53.114Z,1.23
2022-09-27T18:40:44.319Z,1.50
2022-09-27T18:43:10.025Z,1.40
2022-09-27T18:45:39.945Z,0.73
2022-09-27T18:48:09.616Z,1.10
2022-09-27T18:50:38.269Z,3.50
2022-09-27T18:53:07.073Z,2.40
2022-09-27T18:55:38.359Z,4.97
2022-09-27T18:58:06.900Z,2.60
2022-09-27T19:00:35.263Z,3.90
2022-09-27T19:03:03.590Z,2.43
2022-09-27T19:05:33.146Z,3.67
2022-09-27T19:08:01.358Z,3.60
2022-09-27T19:10:29.568Z,4.03
2022-09-27T19:12:57.799Z,2.73
2022-09-27T19:15:26.621Z,3.23
2022-09-27T19:17:54.916Z,4.83
2022-09-27T19:20:23.240Z,2.10
2022-09-27T19:22:52.879Z,3.47
2022-09-27T19:25:21.095Z,1.50
2022-09-27T19:27:49.365Z,2.73
2022-09-27T19:30:18.707Z,3.60
2022-09-27T19:32:47.350Z,1.90
2022-09-27T19:35:15.666Z,1.23
2022-09-27T19:37:43.981Z,1.77
2022-09-27T19:40:13.594Z,1.87
2022-09-27T19:42:41.889Z,1.10
2022-09-27T19:45:12.269Z,1.00
2022-09-27T19:47:40.548Z,2.40
2022-09-27T19:50:09.301Z,2.50
2022-09-27T19:52:38.236Z,3.00
2022-09-27T19:55:07.001Z,1.67
2022-09-27T19:57:36.648Z,3.43
2022-09-27T20:00:05.231Z,4.40
2022-09-27T20:02:33.587Z,2.73
2022-09-27T20:05:01.914Z,2.10
2022-09-27T20:07:30.602Z,1.20
2022-09-27T20:09:58.900Z,1.20
2022-09-27T20:12:27.176Z,2.63
2022-09-27T20:14:56.835Z,1.33
2022-09-27T20:17:25.088Z,1.20
2022-09-27T20:19:53.394Z,1.20
2022-09-27T20:22:21.677Z,1.23
2022-09-27T20:24:49.951Z,1.20
2022-09-27T20:27:20.244Z,1.03
2022-09-27T20:29:49.005Z,1.20
2022-09-27T20:32:33.851Z,0.90
2022-09-27T20:35:03.890Z,1.33
2022-09-27T20:37:32.751Z,1.67
2022-09-27T20:40:00.994Z,1.70
2022-09-27T20:42:29.238Z,1.80
2022-09-27T20:44:57.555Z,2.47
2022-09-27T20:47:27.322Z,2.63
2022-09-27T20:49:55.562Z,2.13
2022-09-27T20:52:23.908Z,2.13
2022-09-27T20:54:52.210Z,1.93
2022-09-27T20:57:40.439Z,3.03
2022-09-27T21:00:14.040Z,3.97
2022-09-27T21:02:43.688Z,4.07
2022-09-27T21:05:12.190Z,4.97
2022-09-27T21:07:41.283Z,1.63
2022-09-27T21:10:09.929Z,2.07
2022-09-27T21:12:38.262Z,2.00
2022-09-27T21:15:06.688Z,1.50
2022-09-27T21:17:35.024Z,1.10
2022-09-27T21:20:04.859Z,1.00
2022-09-27T21:22:34.165Z,1.23
2022-09-27T21:25:02.401Z,2.30
2022-09-27T21:27:30.876Z,1.27
2022-09-27T21:30:00.029Z,1.20
2022-09-27T21:32:28.223Z,0.90
2022-09-27T21:34:57.322Z,1.30
2022-09-27T21:37:27.014Z,0.93
2022-09-27T21:39:57.619Z,1.33
2022-09-27T21:42:25.891Z,1.07
2022-09-27T21:44:54.122Z,1.20
2022-09-27T21:47:22.378Z,1.00
2022-09-27T21:49:50.629Z,1.30
2022-09-27T21:52:18.899Z,1.10
2022-09-27T21:54:48.606Z,1.00
2022-09-27T21:57:16.848Z,1.33
2022-09-27T21:59:45.067Z,1.23
2022-09-27T22:02:13.389Z,1.23
2022-09-27T22:04:41.947Z,1.10
2022-09-27T22:07:10.202Z,1.03
2022-09-27T22:09:38.439Z,0.80
2022-09-27T22:12:08.146Z,1.10
2022-09-27T22:14:36.463Z,1.37
2022-09-27T22:17:04.762Z,1.17
2022-09-27T22:19:33.018Z,0.80
2022-09-27T22:22:01.290Z,1.37
2022-09-27T22:24:29.517Z,1.57
2022-09-27T22:26:57.837Z,1.30
2022-09-27T22:29:27.498Z,2.13
2022-09-27T22:31:55.848Z,1.67
2022-09-27T22:34:29.663Z,1.17
2022-09-27T22:36:58.506Z,0.80
2022-09-27T22:39:26.740Z,0.83
2022-09-27T22:41:55.008Z,1.43
2022-09-27T22:44:23.418Z,1.00
2022-09-27T22:46:53.137Z,1.00
2022-09-27T22:49:21.507Z,1.10
2022-09-27T22:51:50.398Z,0.97
2022-09-27T22:54:19.209Z,1.57
2022-09-27T22:56:47.450Z,1.30
2022-09-27T22:59:15.707Z,1.40
2022-09-27T23:01:44.002Z,0.90
2022-09-27T23:04:14.080Z,1.90
2022-09-27T23:06:43.311Z,1.00
2022-09-27T23:09:11.811Z,1.40
2022-09-27T23:11:40.093Z,1.10
2022-09-27T23:14:09.208Z,0.80
2022-09-27T23:16:38.019Z,1.17
2022-09-27T23:19:08.164Z,1.23
2022-09-27T23:21:37.863Z,1.40
2022-09-27T23:24:06.480Z,1.20
2022-09-27T23:26:34.687Z,1.23
2022-09-27T23:29:03.311Z,1.57
2022-09-27T23:31:32.273Z,1.00
2022-09-27T23:34:03.383Z,1.40
2022-09-27T23:36:31.626Z,1.30
2022-09-27T23:39:01.830Z,1.20
2022-09-27T23:41:30.246Z,1.50
2022-09-27T23:43:58.443Z,1.20
2022-09-27T23:46:26.815Z,1.53
2022-09-27T23:48:58.790Z,1.30
2022-09-27T23:51:27.083Z,1.23
2022-09-27T23:53:57.079Z,0.80
2022-09-27T23:56:26.966Z,1.10
2022-09-27T23:58:55.196Z,1.40
